Time;durP1;ratioP1;P1;durP2;ratioP2;P2;SDS_P1;SDS_P2;PMS_P1;PMS_P2;Temp;Humidity;BMP_temperature;BMP_pressure;BME280_temperature;BME280_humidity;BME280_pressure;Samples;Min_cycle;Max_cycle;Signal;HPM_P1;HPM_P2
2021/04/15 00:00:23;;;;;;;46.22;17.48;;;3.20;99.90;;;;;;5072189;28;20032;-79
2021/04/15 00:02:48;;;;;;;44.47;16.17;;;3.20;99.90;;;;;;5070662;28;20028;-79
2021/04/15 00:05:24;;;;;;;38.70;14.75;;;3.10;99.90;;;;;;5084723;28;20678;-79
2021/04/15 00:07:50;;;;;;;40.15;12.63;;;3.10;99.90;;;;;;5090609;28;20081;-79
2021/04/15 00:10:16;;;;;;;40.03;13.48;;;3.10;99.90;;;;;;5088288;28;20044;-79
2021/04/15 00:12:41;;;;;;;41.58;13.57;;;3.00;99.90;;;;;;5089814;28;20042;-79
2021/04/15 00:15:13;;;;;;;16.35;6.57;;;3.00;99.90;;;;;;5089731;28;20119;-79
2021/04/15 00:17:38;;;;;;;15.35;5.95;;;3.00;99.90;;;;;;5089539;28;20051;-79
2021/04/15 00:20:06;;;;;;;31.83;11.68;;;2.90;99.90;;;;;;5086808;28;20448;-79
2021/04/15 00:22:32;;;;;;;29.73;12.20;;;2.90;99.90;;;;;;5089930;28;20028;-79
2021/04/15 00:24:59;;;;;;;22.75;9.57;;;2.90;99.90;;;;;;5089257;28;20058;-79
2021/04/15 00:27:25;;;;;;;22.38;8.23;;;2.90;99.90;;;;;;5082892;28;20024;-79
2021/04/15 00:29:51;;;;;;;19.90;8.70;;;2.90;99.90;;;;;;5083215;28;20509;-80
2021/04/15 00:32:17;;;;;;;23.23;9.82;;;2.90;99.90;;;;;;5089743;28;20051;-78
2021/04/15 00:34:42;;;;;;;22.45;9.88;;;2.80;99.90;;;;;;5088853;28;20081;-79
2021/04/15 00:37:08;;;;;;;25.35;9.75;;;2.70;99.90;;;;;;5089876;28;20032;-78
2021/04/15 00:39:34;;;;;;;19.85;7.63;;;2.80;99.90;;;;;;5078836;28;20055;-79
2021/04/15 00:41:59;;;;;;;14.70;6.90;;;2.70;99.90;;;;;;5089508;28;20036;-79
2021/04/15 00:44:25;;;;;;;14.18;6.20;;;2.80;99.90;;;;;;5084723;28;20024;-79
2021/04/15 00:46:57;;;;;;;16.23;7.40;;;2.70;99.90;;;;;;5073720;28;20043;-79
2021/04/15 00:49:39;;;;;;;17.08;7.57;;;2.80;99.90;;;;;;5071384;28;20024;-79
2021/04/15 00:52:13;;;;;;;15.00;5.95;;;2.70;99.90;;;;;;5071814;28;20030;-79
2021/04/15 00:54:47;;;;;;;12.73;5.70;;;2.60;99.90;;;;;;5076569;28;20036;-79
2021/04/15 00:57:21;;;;;;;12.30;4.57;;;2.50;99.90;;;;;;5069817;28;20028;-78
2021/04/15 00:59:47;;;;;;;8.75;4.10;;;2.50;99.90;;;;;;5078119;28;20139;-79
2021/04/15 01:02:15;;;;;;;10.30;3.60;;;2.40;99.90;;;;;;5095609;28;20064;-79
2021/04/15 01:04:41;;;;;;;7.90;3.58;;;2.40;99.90;;;;;;5096042;28;20028;-80
2021/04/15 01:07:10;;;;;;;6.50;2.95;;;2.40;99.90;;;;;;5095996;28;20070;-79
2021/04/15 01:09:35;;;;;;;9.55;3.80;;;2.40;99.90;;;;;;5095951;28;20429;-79
2021/04/15 01:12:10;;;;;;;8.00;3.90;;;2.40;99.90;;;;;;5083911;28;20038;-80
2021/04/15 01:14:57;;;;;;;9.13;4.45;;;2.40;99.90;;;;;;5080077;28;20049;-79
2021/04/15 01:17:32;;;;;;;10.27;5.10;;;2.40;99.90;;;;;;5082703;28;20032;-79
2021/04/15 01:20:06;;;;;;;13.50;4.97;;;2.40;99.90;;;;;;5085264;28;20036;-79
2021/04/15 01:23:06;;;;;;;9.73;3.88;;;2.40;99.90;;;;;;5095703;28;20031;-79
2021/04/15 01:25:37;;;;;;;7.15;2.67;;;2.40;99.90;;;;;;5075787;28;20028;-79
2021/04/15 01:28:23;;;;;;;6.43;2.90;;;2.40;99.90;;;;;;5081382;28;20043;-79
2021/04/15 01:30:54;;;;;;;7.13;3.13;;;2.30;99.90;;;;;;5024805;28;20540;-79
2021/04/15 01:33:38;;;;;;;8.10;3.08;;;2.30;99.90;;;;;;5089211;28;20039;-79
2021/04/15 01:36:24;;;;;;;8.75;3.17;;;2.30;99.90;;;;;;5075950;28;20037;-79
2021/04/15 01:39:02;;;;;;;9.07;3.95;;;2.10;99.90;;;;;;5095555;28;20038;-79
2021/04/15 01:41:36;;;;;;;9.48;3.90;;;2.00;99.90;;;;;;5096880;28;20028;-79
2021/04/15 01:44:08;;;;;;;7.25;3.33;;;2.00;99.90;;;;;;5095523;28;20038;-79
2021/04/15 01:46:38;;;;;;;8.65;3.95;;;2.00;99.90;;;;;;5096713;28;20028;-79
2021/04/15 01:49:07;;;;;;;9.13;4.07;;;2.10;99.90;;;;;;5089191;28;20486;-79
2021/04/15 01:51:39;;;;;;;8.45;4.38;;;2.10;99.90;;;;;;5082930;28;20067;-78
2021/04/15 01:54:12;;;;;;;7.38;4.20;;;2.10;99.90;;;;;;5091367;28;20039;-79
2021/04/15 01:56:58;;;;;;;12.70;4.60;;;2.10;99.90;;;;;;5080763;28;20078;-78
2021/04/15 01:59:50;;;;;;;12.48;5.20;;;2.00;99.90;;;;;;5076539;28;20051;-79
2021/04/15 02:02:43;;;;;;;11.48;4.28;;;1.90;99.90;;;;;;5095227;28;20031;-79
2021/04/15 02:05:18;;;;;;;11.15;5.50;;;2.00;99.90;;;;;;5078707;28;20052;-79
2021/04/15 02:07:59;;;;;;;12.82;6.40;;;1.90;99.90;;;;;;5074958;28;20086;-79
2021/04/15 02:10:26;;;;;;;15.55;5.72;;;2.00;99.90;;;;;;5075068;28;20048;-78
2021/04/15 02:12:55;;;;;;;13.85;6.38;;;1.90;99.90;;;;;;5074560;28;20625;-78
2021/04/15 02:15:27;;;;;;;15.90;7.07;;;2.00;99.90;;;;;;5071998;28;20043;-79
2021/04/15 02:17:56;;;;;;;16.10;7.43;;;2.00;99.90;;;;;;5088530;28;20526;-79
2021/04/15 02:20:24;;;;;;;14.25;7.05;;;2.00;99.90;;;;;;5074174;28;20058;-79
2021/04/15 02:23:01;;;;;;;14.77;7.40;;;1.90;99.90;;;;;;5085912;28;20032;-78
2021/04/15 02:25:46;;;;;;;14.25;6.68;;;1.80;99.90;;;;;;5088454;28;20513;-79
2021/04/15 02:28:17;;;;;;;18.98;7.35;;;1.80;99.90;;;;;;5087467;28;20032;-78
2021/04/15 02:30:58;;;;;;;15.18;6.43;;;1.80;99.90;;;;;;5083418;28;20114;-79
2021/04/15 02:33:34;;;;;;;15.85;6.22;;;1.80;99.90;;;;;;5077096;28;20051;-78
2021/04/15 02:36:03;;;;;;;11.98;5.95;;;1.80;99.90;;;;;;5072431;28;20056;-78
2021/04/15 02:38:43;;;;;;;16.50;5.88;;;1.80;99.90;;;;;;5075001;28;20115;-78
2021/04/15 02:41:11;;;;;;;11.88;5.90;;;1.80;99.90;;;;;;5071952;28;20040;-79
2021/04/15 02:43:56;;;;;;;13.55;5.63;;;1.80;99.90;;;;;;5082561;28;20036;-79
2021/04/15 02:46:48;;;;;;;14.77;6.10;;;1.80;99.90;;;;;;5091643;28;20036;-79
2021/04/15 02:49:17;;;;;;;16.02;6.43;;;1.80;99.90;;;;;;5070217;28;20119;-79
2021/04/15 02:51:47;;;;;;;17.80;7.32;;;1.80;99.90;;;;;;5071571;28;20128;-78
2021/04/15 02:54:32;;;;;;;16.20;7.65;;;1.80;99.90;;;;;;5073230;28;20024;-79
2021/04/15 02:57:21;;;;;;;14.27;5.30;;;1.80;99.90;;;;;;5080835;28;20133;-79
2021/04/15 02:59:55;;;;;;;16.63;6.13;;;1.70;99.90;;;;;;5083670;28;20063;-78
2021/04/15 03:02:27;;;;;;;14.15;6.18;;;1.70;99.90;;;;;;5081158;28;20043;-79
2021/04/15 03:05:02;;;;;;;13.27;6.47;;;1.70;99.90;;;;;;5091351;28;20063;-78
2021/04/15 03:07:31;;;;;;;14.95;6.25;;;1.70;99.90;;;;;;5084192;28;20108;-79
2021/04/15 03:10:00;;;;;;;10.23;5.45;;;1.70;99.90;;;;;;5075173;28;20032;-79
2021/04/15 03:12:35;;;;;;;10.82;5.07;;;1.70;99.90;;;;;;5070120;28;20111;-78
2021/04/15 03:15:06;;;;;;;11.52;5.40;;;1.60;99.90;;;;;;5070912;28;20477;-78
2021/04/15 03:17:36;;;;;;;13.23;5.47;;;1.60;99.90;;;;;;5071263;28;20024;-78
2021/04/15 03:20:09;;;;;;;12.75;5.10;;;1.60;99.90;;;;;;5084009;28;20075;-78
2021/04/15 03:23:03;;;;;;;11.88;5.75;;;1.50;99.90;;;;;;5071082;28;20040;-79
2021/04/15 03:25:29;;;;;;;16.50;5.78;;;1.50;99.90;;;;;;5072343;28;20509;-78
2021/04/15 03:28:12;;;;;;;13.40;6.38;;;1.50;99.90;;;;;;5082042;28;20024;-79
2021/04/15 03:30:46;;;;;;;;;;;1.50;99.90;;;;;;5091619;28;20086;-78
2021/04/15 03:33:45;;;;;;;12.18;5.22;;;1.40;99.90;;;;;;5078295;28;19940;-78
2021/04/15 03:36:23;;;;;;;13.68;5.40;;;1.30;99.90;;;;;;5071121;28;20044;-78
2021/04/15 03:38:54;;;;;;;14.55;5.43;;;1.30;99.90;;;;;;5071335;28;20064;-79
2021/04/15 03:41:44;;;;;;;16.30;5.63;;;1.30;99.90;;;;;;5071255;28;20032;-79
2021/04/15 03:44:19;;;;;;;13.50;5.53;;;1.30;99.90;;;;;;5079219;28;20385;-79
2021/04/15 03:46:54;;;;;;;12.45;4.93;;;1.30;99.90;;;;;;5071983;28;20044;-78
2021/04/15 03:49:35;;;;;;;12.18;5.25;;;1.30;99.90;;;;;;5090056;28;20060;-78
2021/04/15 03:52:07;;;;;;;11.45;5.05;;;1.30;99.90;;;;;;5077080;28;20122;-79
2021/04/15 03:54:39;;;;;;;11.67;4.93;;;1.30;99.90;;;;;;5083830;28;20500;-79
2021/04/15 03:57:10;;;;;;;14.35;4.93;;;1.30;99.90;;;;;;5074222;28;20035;-78
2021/04/15 03:59:45;;;;;;;14.63;5.03;;;1.30;99.90;;;;;;5070107;28;20129;-78
2021/04/15 04:02:41;;;;;;;11.55;5.22;;;1.30;99.90;;;;;;5069503;28;20036;-79
2021/04/15 04:05:13;;;;;;;14.55;6.72;;;1.20;99.90;;;;;;5071675;28;20071;-78
2021/04/15 04:07:52;;;;;;;14.60;6.13;;;1.20;99.90;;;;;;5070015;28;20024;-78
2021/04/15 04:10:23;;;;;;;14.27;6.63;;;1.20;99.90;;;;;;5080782;28;20481;-78
2021/04/15 04:13:20;;;;;;;15.93;6.30;;;1.20;99.90;;;;;;5090320;28;20032;-79
2021/04/15 04:15:53;;;;;;;16.67;6.75;;;1.20;99.90;;;;;;5087088;28;20041;-78
2021/04/15 04:18:31;;;;;;;12.45;5.53;;;1.10;99.90;;;;;;5081004;28;20539;-79
2021/04/15 04:21:14;;;;;;;15.57;6.43;;;1.10;99.90;;;;;;5084377;28;20459;-78
2021/04/15 04:23:48;;;;;;;13.18;6.25;;;1.10;99.90;;;;;;5082018;28;20035;-78
2021/04/15 04:26:27;;;;;;;12.77;5.05;;;1.10;99.90;;;;;;5070010;28;20040;-78
2021/04/15 04:29:12;;;;;;;16.38;5.85;;;1.10;99.90;;;;;;5073268;28;20031;-78
2021/04/15 04:31:44;;;;;;;15.77;6.25;;;1.10;99.90;;;;;;5089736;28;20059;-79
2021/04/15 04:34:15;;;;;;;20.63;5.88;;;1.10;99.90;;;;;;5089160;28;20472;-78
2021/04/15 04:36:42;;;;;;;15.35;5.85;;;1.00;99.90;;;;;;5080310;28;20047;-78
2021/04/15 04:39:11;;;;;;;11.27;5.57;;;1.00;99.90;;;;;;5084519;28;20039;-79
2021/04/15 04:41:49;;;;;;;14.25;5.00;;;1.10;99.90;;;;;;5069431;28;20154;-79
2021/04/15 04:44:22;;;;;;;12.52;5.47;;;1.00;99.90;;;;;;5069102;28;20028;-79
2021/04/15 04:46:52;;;;;;;12.02;5.47;;;1.10;99.90;;;;;;5069854;28;20538;-79
2021/04/15 04:49:27;;;;;;;13.88;6.03;;;1.10;99.90;;;;;;5081170;28;20028;-78
2021/04/15 04:51:58;;;;;;;11.68;5.93;;;1.00;99.90;;;;;;5069687;28;20040;-78
2021/04/15 04:54:25;;;;;;;14.97;6.27;;;1.00;99.90;;;;;;5068644;28;20039;-78
2021/04/15 04:57:13;;;;;;;14.05;6.18;;;1.00;99.90;;;;;;5089109;28;20028;-78
2021/04/15 04:59:50;;;;;;;14.07;6.28;;;1.00;99.90;;;;;;5080873;28;20051;-78
2021/04/15 05:02:17;;;;;;;16.13;6.60;;;0.90;99.90;;;;;;5074184;28;20059;-78
2021/04/15 05:04:43;;;;;;;13.25;5.35;;;0.90;99.90;;;;;;5078950;28;20040;-79
2021/04/15 05:07:20;;;;;;;12.43;5.60;;;0.90;99.90;;;;;;5072241;28;20143;-79
2021/04/15 05:09:47;;;;;;;13.95;5.85;;;0.90;99.90;;;;;;5073110;28;20119;-78
2021/04/15 05:12:20;;;;;;;10.48;5.72;;;1.00;99.90;;;;;;5081058;28;20024;-78
2021/04/15 05:14:46;;;;;;;11.27;5.70;;;1.00;99.90;;;;;;5078142;28;20043;-78
2021/04/15 05:17:21;;;;;;;11.15;5.57;;;1.00;99.90;;;;;;5082160;28;20039;-78
2021/04/15 05:19:47;;;;;;;13.05;5.45;;;1.00;99.90;;;;;;5082569;28;20036;-78
2021/04/15 05:22:28;;;;;;;10.60;5.50;;;1.00;99.90;;;;;;5081291;28;20481;-78
2021/04/15 05:25:05;;;;;;;11.02;6.68;;;1.10;99.90;;;;;;5070361;28;20028;-79
2021/04/15 05:27:35;;;;;;;15.85;5.78;;;1.10;99.90;;;;;;5083364;28;20077;-77
2021/04/15 05:30:28;;;;;;;12.38;5.32;;;1.10;99.90;;;;;;5089372;28;20060;-78
2021/04/15 05:33:00;;;;;;;9.00;5.13;;;1.10;99.90;;;;;;5089482;28;20085;-78
2021/04/15 05:35:34;;;;;;;12.23;5.95;;;1.10;99.90;;;;;;5089068;28;20040;-79
2021/04/15 05:37:59;;;;;;;12.30;6.25;;;1.10;99.90;;;;;;5086388;28;20538;-78
2021/04/15 05:40:25;;;;;;;19.38;5.68;;;1.10;99.90;;;;;;5077214;28;20036;-78
2021/04/15 05:43:00;;;;;;;12.65;5.47;;;1.10;99.90;;;;;;5068585;28;20063;-77
2021/04/15 05:45:28;;;;;;;15.23;6.05;;;1.10;99.90;;;;;;5068972;28;20844;-78
2021/04/15 05:48:01;;;;;;;12.43;4.68;;;1.20;99.90;;;;;;5073930;28;20028;-78
2021/04/15 05:50:37;;;;;;;10.88;4.63;;;1.40;99.90;;;;;;5072681;28;20029;-78
2021/04/15 05:53:12;;;;;;;15.55;5.57;;;1.70;99.90;;;;;;5088609;28;20027;-78
2021/04/15 05:55:49;;;;;;;21.75;8.50;;;1.80;99.90;;;;;;5074056;28;20040;-78
2021/04/15 05:58:30;;;;;;;13.45;7.07;;;2.00;99.90;;;;;;5071827;28;20044;-78
2021/04/15 06:01:10;;;;;;;20.30;7.72;;;2.20;99.90;;;;;;5085498;28;20028;-78
2021/04/15 06:03:48;;;;;;;25.98;9.55;;;2.40;99.90;;;;;;5091642;28;20430;-79
2021/04/15 06:06:19;;;;;;;25.77;9.18;;;2.60;99.90;;;;;;5088074;28;20380;-78
2021/04/15 06:08:48;;;;;;;27.48;8.05;;;2.60;99.90;;;;;;5085993;28;20074;-79
2021/04/15 06:11:33;;;;;;;27.08;9.25;;;2.70;99.90;;;;;;5084343;28;20035;-78
2021/04/15 06:14:08;;;;;;;23.00;7.78;;;2.90;99.90;;;;;;5087761;28;20032;-78
2021/04/15 06:16:43;;;;;;;24.42;8.38;;;3.20;99.90;;;;;;5090352;28;20047;-79
2021/04/15 06:19:22;;;;;;;24.75;9.68;;;3.30;99.90;;;;;;5074957;28;20119;-77
2021/04/15 06:21:52;;;;;;;19.60;7.55;;;3.50;99.90;;;;;;5086341;28;20123;-79
2021/04/15 06:24:29;;;;;;;19.77;7.88;;;3.70;99.90;;;;;;5087686;28;20473;-78
2021/04/15 06:26:58;;;;;;;16.65;7.35;;;3.80;99.90;;;;;;5085070;28;20035;-78
2021/04/15 06:29:42;;;;;;;23.27;7.65;;;4.00;99.90;;;;;;5084953;28;20025;-78
2021/04/15 06:32:15;;;;;;;21.25;8.27;;;4.10;99.90;;;;;;5080307;28;20080;-85
2021/04/15 06:34:41;;;;;;;18.80;7.35;;;4.30;99.90;;;;;;5080188;28;20033;-79
2021/04/15 06:37:23;;;;;;;16.17;7.32;;;4.40;99.90;;;;;;5079784;28;20038;-79
2021/04/15 06:39:54;;;;;;;20.57;8.33;;;4.60;99.90;;;;;;5079766;28;20028;-79
2021/04/15 06:42:41;;;;;;;16.20;6.50;;;4.70;99.90;;;;;;5077219;28;20404;-79
2021/04/15 06:45:21;;;;;;;22.00;7.13;;;4.70;99.90;;;;;;5085410;28;20672;-79
2021/04/15 06:48:15;;;;;;;13.10;6.93;;;4.80;99.90;;;;;;5082319;28;20035;-79
2021/04/15 06:51:19;;;;;;;14.93;5.95;;;4.80;99.90;;;;;;5076451;28;20389;-79
2021/04/15 06:54:09;;;;;;;14.45;6.93;;;4.50;99.90;;;;;;5079812;28;20028;-79
2021/04/15 06:57:12;;;;;;;15.98;6.50;;;4.70;99.90;;;;;;5089476;28;20024;-79
2021/04/15 06:59:41;;;;;;;15.05;6.55;;;5.00;99.90;;;;;;5081114;28;20044;-79
2021/04/15 07:02:10;;;;;;;11.55;6.05;;;5.10;99.90;;;;;;5074843;28;20524;-79
2021/04/15 07:04:45;;;;;;;11.73;6.40;;;5.00;99.90;;;;;;5090326;28;20036;-79
2021/04/15 07:07:26;;;;;;;12.75;6.15;;;5.10;99.90;;;;;;5088242;28;20016;-79
2021/04/15 07:10:16;;;;;;;12.60;5.78;;;5.10;99.90;;;;;;5088078;28;20046;-79
2021/04/15 07:13:03;;;;;;;13.23;4.80;;;5.40;99.90;;;;;;5080492;28;20033;-79
2021/04/15 07:15:49;;;;;;;14.38;5.82;;;5.90;99.90;;;;;;5086448;28;20144;-79
2021/04/15 07:18:39;;;;;;;17.60;6.32;;;6.10;99.90;;;;;;5070480;28;20393;-79
2021/04/15 07:21:20;;;;;;;12.85;6.88;;;6.00;99.90;;;;;;5090703;28;20539;-79
2021/04/15 07:24:13;;;;;;;9.98;5.20;;;6.00;99.90;;;;;;5083019;28;20354;-80
2021/04/15 07:27:03;;;;;;;14.27;5.40;;;6.10;99.90;;;;;;5088091;28;20043;-79
2021/04/15 07:29:42;;;;;;;14.18;5.85;;;6.30;99.90;;;;;;5080641;28;20032;-79
2021/04/15 07:32:26;;;;;;;12.10;5.93;;;6.80;99.90;;;;;;5087488;28;20086;-79
2021/04/15 07:35:16;;;;;;;12.45;6.05;;;7.20;99.90;;;;;;5081701;28;20032;-79
2021/04/15 07:38:11;;;;;;;11.80;5.57;;;7.10;99.50;;;;;;5088305;28;20117;-79
2021/04/15 07:40:42;;;;;;;12.82;6.43;;;7.20;99.40;;;;;;5075520;28;20101;-79
2021/04/15 07:43:26;;;;;;;13.73;6.43;;;7.20;98.30;;;;;;5082339;28;20384;-79
2021/04/15 07:46:24;;;;;;;10.20;5.50;;;7.20;98.80;;;;;;5082099;28;20074;-79
2021/04/15 07:48:55;;;;;;;12.00;6.47;;;7.60;98.80;;;;;;5054120;28;20523;-79
2021/04/15 07:51:50;;;;;;;11.38;5.93;;;7.50;98.40;;;;;;5085306;28;20043;-79
2021/04/15 07:54:36;;;;;;;12.82;6.38;;;7.50;97.30;;;;;;5069291;28;20040;-78
2021/04/15 07:57:24;;;;;;;12.05;5.50;;;7.70;98.10;;;;;;5090393;28;20032;-79
2021/04/15 08:00:17;;;;;;;13.27;5.65;;;7.60;97.10;;;;;;5084543;28;20389;-80
2021/04/15 08:03:01;;;;;;;;;;;8.10;97.10;;;;;;5080139;28;20035;-79
2021/04/15 08:05:56;;;;;;;10.82;5.70;;;8.20;97.10;;;;;;5086139;28;20726;-78
2021/04/15 08:08:43;;;;;;;14.40;6.00;;;8.60;96.20;;;;;;5046504;28;20043;-79
2021/04/15 08:11:16;;;;;;;14.70;6.18;;;8.80;95.60;;;;;;5071661;28;20030;-79
2021/04/15 08:13:50;;;;;;;15.27;6.68;;;8.50;95.50;;;;;;5086534;28;20028;-79
2021/04/15 08:17:07;;;;;;;11.95;6.05;;;8.60;95.30;;;;;;5085213;28;20046;-79
2021/04/15 08:19:55;;;;;;;10.55;5.85;;;8.40;94.90;;;;;;5061049;28;20040;-79
2021/04/15 08:22:58;;;;;;;11.70;5.82;;;8.40;94.90;;;;;;5089406;28;20028;-79
2021/04/15 08:25:35;;;;;;;10.60;6.15;;;8.80;94.70;;;;;;5073411;28;20462;-79
2021/04/15 08:28:27;;;;;;;9.80;5.47;;;9.20;95.10;;;;;;5084481;28;20031;-79
2021/04/15 08:31:01;;;;;;;12.27;5.65;;;9.40;94.00;;;;;;5076541;28;20505;-79
2021/04/15 08:33:57;;;;;;;12.13;7.18;;;9.60;94.00;;;;;;5078387;28;20043;-79
2021/04/15 08:36:55;;;;;;;10.23;6.07;;;8.40;94.50;;;;;;5081432;28;20087;-79
2021/04/15 08:39:34;;;;;;;12.20;6.15;;;7.90;94.30;;;;;;5056785;28;20056;-79
2021/04/15 08:42:09;;;;;;;12.07;6.28;;;7.70;96.30;;;;;;5083997;28;20488;-79
2021/04/15 08:44:54;;;;;;;11.70;6.07;;;8.30;95.60;;;;;;5085079;28;20106;-79
2021/04/15 08:47:23;;;;;;;9.80;6.47;;;8.50;95.60;;;;;;5087954;28;20067;-79
2021/04/15 08:50:02;;;;;;;12.60;6.55;;;8.30;94.80;;;;;;5088895;28;20036;-79
2021/04/15 08:52:39;;;;;;;10.68;5.72;;;8.40;94.70;;;;;;5081051;28;20020;-79
2021/04/15 08:55:40;;;;;;;12.35;6.40;;;8.70;93.70;;;;;;5088997;28;20055;-79
2021/04/15 08:58:21;;;;;;;12.55;5.75;;;8.50;93.90;;;;;;5086814;28;20035;-79
2021/04/15 09:01:12;;;;;;;9.18;5.18;;;8.00;94.50;;;;;;5081471;28;20109;-80
2021/04/15 09:03:47;;;;;;;10.05;4.95;;;8.50;93.80;;;;;;5083589;28;20024;-78
2021/04/15 09:06:26;;;;;;;9.60;4.88;;;8.50;92.90;;;;;;5077767;28;20036;-79
2021/04/15 09:09:25;;;;;;;13.50;4.85;;;8.40;94.10;;;;;;5086924;28;20024;-79
2021/04/15 09:12:00;;;;;;;12.68;5.38;;;8.80;92.70;;;;;;5075898;28;20068;-79
2021/04/15 09:14:57;;;;;;;9.43;4.60;;;8.10;93.10;;;;;;5082488;28;20028;-79
2021/04/15 09:17:37;;;;;;;10.55;5.82;;;8.50;92.70;;;;;;5073333;28;20032;-79
2021/04/15 09:20:33;;;;;;;8.52;5.05;;;8.50;92.40;;;;;;5088434;28;20043;-79
2021/04/15 09:23:42;;;;;;;11.18;5.50;;;8.50;93.30;;;;;;5088205;28;20032;-79
2021/04/15 09:26:20;;;;;;;8.40;4.90;;;8.20;93.50;;;;;;5089977;28;20067;-80
2021/04/15 09:29:01;;;;;;;10.98;5.38;;;7.70;93.00;;;;;;5088266;28;20056;-79
2021/04/15 09:31:33;;;;;;;10.98;5.85;;;7.60;93.90;;;;;;5092180;28;20052;-79
2021/04/15 09:33:58;;;;;;;11.20;5.93;;;8.10;92.70;;;;;;5091471;28;20688;-79
2021/04/15 09:36:43;;;;;;;11.35;5.07;;;7.90;93.30;;;;;;5086204;28;20039;-79
2021/04/15 09:39:35;;;;;;;11.05;5.13;;;8.00;92.90;;;;;;5092983;28;20032;-79
2021/04/15 09:42:32;;;;;;;9.15;5.15;;;7.80;93.00;;;;;;5085749;28;20660;-79
2021/04/15 09:44:58;;;;;;;8.77;5.18;;;7.90;93.30;;;;;;5069359;28;20072;-79
2021/04/15 09:47:30;;;;;;;7.68;5.32;;;8.10;92.60;;;;;;5073869;28;20548;-79
2021/04/15 09:50:23;;;;;;;8.45;4.85;;;8.50;91.90;;;;;;5081372;28;20123;-79
2021/04/15 09:53:16;;;;;;;11.27;5.50;;;9.00;92.50;;;;;;5069415;28;20027;-79
2021/04/15 09:56:19;;;;;;;16.52;4.55;;;9.10;90.30;;;;;;5078267;28;20472;-79
2021/04/15 09:58:48;;;;;;;13.18;5.20;;;8.70;91.50;;;;;;5080670;28;20500;-79
2021/04/15 10:01:26;;;;;;;8.50;4.80;;;8.80;91.20;;;;;;5077262;28;20407;-79
2021/04/15 10:04:03;;;;;;;9.82;5.20;;;8.60;90.80;;;;;;5087339;28;20024;-79
2021/04/15 10:06:48;;;;;;;10.68;4.85;;;8.80;91.80;;;;;;5088159;28;20061;-79
2021/04/15 10:09:39;;;;;;;15.43;5.30;;;9.50;92.40;;;;;;5080423;28;20043;-79
2021/04/15 10:12:29;;;;;;;7.55;4.72;;;9.60;90.60;;;;;;5078461;28;20039;-79
2021/04/15 10:15:16;;;;;;;11.00;4.90;;;9.90;88.80;;;;;;5085134;28;20057;-79
2021/04/15 10:18:06;;;;;;;10.23;4.43;;;9.80;86.70;;;;;;5083375;28;20044;-79
2021/04/15 10:20:35;;;;;;;7.85;4.88;;;9.80;88.10;;;;;;5071124;28;20057;-79
2021/04/15 10:23:15;;;;;;;17.15;5.25;;;10.10;87.90;;;;;;5075447;28;20062;-79
2021/04/15 10:26:00;;;;;;;9.93;5.20;;;10.10;89.40;;;;;;5080425;28;20121;-79
2021/04/15 10:28:50;;;;;;;10.20;5.47;;;10.30;88.30;;;;;;5076384;28;20025;-79
2021/04/15 10:31:30;;;;;;;10.75;5.75;;;10.60;87.70;;;;;;5091119;28;20071;-78
2021/04/15 10:34:11;;;;;;;13.07;5.55;;;10.30;88.40;;;;;;5081393;28;20111;-79
2021/04/15 10:36:55;;;;;;;13.25;5.90;;;10.20;87.20;;;;;;5080725;28;20132;-79
2021/04/15 10:39:48;;;;;;;11.68;5.60;;;10.60;87.30;;;;;;5082801;28;20031;-79
2021/04/15 10:42:34;;;;;;;10.80;5.68;;;10.70;88.10;;;;;;5082277;28;20061;-79
2021/04/15 10:45:19;;;;;;;7.50;4.82;;;10.10;87.10;;;;;;5082310;28;20461;-79
2021/04/15 10:48:07;;;;;;;11.88;5.88;;;10.20;89.00;;;;;;5087482;28;20111;-79
2021/04/15 10:50:44;;;;;;;12.32;5.63;;;10.00;85.70;;;;;;5081663;28;20032;-79
2021/04/15 10:53:43;;;;;;;8.63;5.28;;;10.40;85.70;;;;;;5084774;28;20040;-79
2021/04/15 10:56:31;;;;;;;8.75;4.95;;;10.60;85.00;;;;;;5083841;28;20075;-78
2021/04/15 10:58:59;;;;;;;10.57;5.88;;;10.80;86.50;;;;;;5084874;28;20105;-78
2021/04/15 11:01:46;;;;;;;8.30;5.03;;;10.90;85.30;;;;;;5088174;28;20039;-79
2021/04/15 11:04:12;;;;;;;8.48;4.60;;;10.70;85.20;;;;;;5089055;28;20051;-79
2021/04/15 11:06:43;;;;;;;9.73;5.40;;;10.80;82.90;;;;;;5089470;28;20673;-78
2021/04/15 11:09:18;;;;;;;9.07;5.68;;;11.00;85.90;;;;;;5078417;28;20024;-80
2021/04/15 11:12:14;;;;;;;7.45;4.25;;;11.10;83.60;;;;;;5089497;28;20605;-79
2021/04/15 11:14:43;;;;;;;8.50;4.85;;;11.50;85.50;;;;;;5083537;28;20044;-79
2021/04/15 11:17:48;;;;;;;13.30;5.35;;;11.80;83.00;;;;;;5087631;28;20056;-78
2021/04/15 11:20:20;;;;;;;9.25;4.75;;;11.80;81.80;;;;;;5003129;28;20045;-79
2021/04/15 11:23:13;;;;;;;6.95;4.38;;;11.50;80.90;;;;;;5005482;28;20061;-79
2021/04/15 11:25:48;;;;;;;7.45;4.60;;;11.60;80.20;;;;;;5057197;28;20048;-79
2021/04/15 11:28:23;;;;;;;9.98;5.63;;;12.00;82.70;;;;;;5083145;28;20028;-79
2021/04/15 11:30:55;;;;;;;8.90;5.05;;;11.20;79.80;;;;;;5082836;28;20053;-78
2021/04/15 11:33:43;;;;;;;14.55;4.88;;;11.80;80.80;;;;;;5079357;28;20059;-79
2021/04/15 11:36:20;;;;;;;7.55;4.90;;;11.80;78.80;;;;;;5078791;28;20032;-79
2021/04/15 11:38:50;;;;;;;9.38;4.78;;;12.00;77.10;;;;;;5077019;28;20081;-79
2021/04/15 11:41:25;;;;;;;9.90;4.78;;;12.30;76.80;;;;;;5077744;28;20036;-79
2021/04/15 11:44:05;;;;;;;7.63;4.80;;;12.20;73.90;;;;;;5080244;28;20886;-79
2021/04/15 11:46:48;;;;;;;10.18;5.20;;;12.50;74.20;;;;;;5079151;28;20074;-78
2021/04/15 11:49:26;;;;;;;7.13;4.40;;;12.60;74.70;;;;;;5081493;28;20048;-79
2021/04/15 11:52:34;;;;;;;9.25;4.47;;;12.90;74.10;;;;;;5084631;28;20033;-79
2021/04/15 11:55:21;;;;;;;8.98;5.07;;;12.50;73.00;;;;;;5085295;28;20145;-79
2021/04/15 11:57:57;;;;;;;9.30;4.47;;;12.60;72.20;;;;;;5081443;28;20078;-79
2021/04/15 12:00:27;;;;;;;7.65;4.38;;;12.90;73.10;;;;;;5074565;28;20075;-79
2021/04/15 12:02:56;;;;;;;12.50;5.13;;;12.80;71.30;;;;;;5082471;28;20444;-78
2021/04/15 12:05:32;;;;;;;10.00;4.47;;;12.80;69.90;;;;;;5084108;28;20083;-78
2021/04/15 12:08:22;;;;;;;9.40;4.47;;;13.00;70.80;;;;;;5077466;28;20028;-78
2021/04/15 12:10:57;;;;;;;8.73;4.63;;;13.20;70.40;;;;;;5078937;28;20808;-77
2021/04/15 12:13:26;;;;;;;9.15;4.65;;;13.30;69.40;;;;;;5082809;28;20598;-78
2021/04/15 12:15:55;;;;;;;9.73;4.65;;;12.90;70.50;;;;;;5085372;28;20051;-78
2021/04/15 12:18:24;;;;;;;8.85;4.57;;;12.70;69.90;;;;;;5086695;28;20077;-78
2021/04/15 12:21:13;;;;;;;7.13;4.25;;;13.10;68.00;;;;;;5088099;28;20039;-77
2021/04/15 12:23:51;;;;;;;8.35;5.13;;;12.50;69.10;;;;;;5076401;28;20054;-78
2021/04/15 12:26:38;;;;;;;7.50;4.85;;;12.70;68.20;;;;;;5071959;28;20068;-78
2021/04/15 12:29:27;;;;;;;8.27;4.65;;;12.60;68.70;;;;;;5089074;28;20385;-77
2021/04/15 12:32:04;;;;;;;8.13;4.78;;;12.70;70.70;;;;;;5081440;28;20055;-78
2021/04/15 12:34:53;;;;;;;12.75;4.82;;;12.70;68.70;;;;;;5087492;28;20036;-78
2021/04/15 12:37:22;;;;;;;9.32;4.20;;;12.60;65.90;;;;;;5080315;28;20038;-77
2021/04/15 12:40:00;;;;;;;5.88;3.53;;;12.00;64.90;;;;;;5081547;28;20043;-78
2021/04/15 12:42:26;;;;;;;7.07;3.67;;;10.90;67.40;;;;;;5077221;28;20028;-77
2021/04/15 12:44:58;;;;;;;8.25;3.70;;;11.30;67.80;;;;;;5079071;28;20070;-76
2021/04/15 12:47:25;;;;;;;7.28;3.78;;;10.90;66.90;;;;;;5074567;28;20038;-77
2021/04/15 12:49:52;;;;;;;11.85;3.90;;;11.20;69.00;;;;;;5076235;28;20037;-77
2021/04/15 12:52:21;;;;;;;9.05;4.43;;;10.80;69.80;;;;;;5083591;28;20389;-77
2021/04/15 12:54:47;;;;;;;8.80;4.32;;;10.50;70.10;;;;;;5077740;28;20635;-78
2021/04/15 12:57:15;;;;;;;6.97;4.13;;;10.30;72.60;;;;;;5073497;28;20032;-77
2021/04/15 12:59:51;;;;;;;7.97;4.38;;;10.40;72.60;;;;;;5083599;28;20025;-78
2021/04/15 13:02:26;;;;;;;9.93;4.88;;;10.20;72.30;;;;;;5085143;28;20073;-78
2021/04/15 13:04:55;;;;;;;8.75;4.85;;;10.40;76.30;;;;;;5076298;28;20145;-79
2021/04/15 13:07:26;;;;;;;8.35;5.28;;;10.60;74.10;;;;;;5075537;28;20028;-78
2021/04/15 13:10:15;;;;;;;10.27;5.18;;;11.10;72.40;;;;;;5081843;28;20036;-75
2021/04/15 13:12:46;;;;;;;8.90;4.50;;;10.50;71.10;;;;;;5080984;28;20032;-79
2021/04/15 13:15:23;;;;;;;9.15;4.70;;;11.00;72.90;;;;;;5080201;28;20064;-79
2021/04/15 13:17:51;;;;;;;7.57;4.20;;;11.00;72.80;;;;;;5084142;28;20036;-78
2021/04/15 13:20:19;;;;;;;8.68;4.95;;;10.80;72.00;;;;;;5082333;28;20032;-78
2021/04/15 13:22:52;;;;;;;18.75;4.82;;;11.00;74.80;;;;;;5082683;28;20051;-78
2021/04/15 13:25:21;;;;;;;11.18;4.57;;;9.90;73.10;;;;;;5069380;28;20090;-79
2021/04/15 13:27:53;;;;;;;9.25;4.65;;;10.00;76.00;;;;;;5085352;28;20035;-80
2021/04/15 13:30:22;;;;;;;30.73;5.30;;;10.20;73.90;;;;;;5085881;28;20595;-80
2021/04/15 13:33:09;;;;;;;23.40;5.07;;;10.30;73.90;;;;;;5082252;28;20036;-77
2021/04/15 13:35:53;;;;;;;9.00;4.55;;;10.40;72.50;;;;;;5082911;28;20135;-78
2021/04/15 13:41:22;;;;;;;9.07;4.50;;;9.50;81.30;;;;;;5063297;28;20362;-78
2021/04/15 13:43:59;;;;;;;18.20;5.38;;;9.30;79.00;;;;;;5079171;28;20031;-79
2021/04/15 13:46:25;;;;;;;8.57;4.90;;;9.40;78.10;;;;;;5068960;28;20044;-79